sensor_id;sensor_type;location;lat;lon;timestamp;pressure;altitude;pressure_sealevel;temperature;humidity
62849;BME280;48941;49.516;8.286;2024-01-30T00:02:04;101797.09;;;1.50;100.00
62849;BME280;48941;49.516;8.286;2024-01-30T00:04:33;101793.63;;;1.49;100.00
62849;BME280;48941;49.516;8.286;2024-01-30T00:07:01;101798.94;;;1.46;100.00
62849;BME280;48941;49.516;8.286;2024-01-30T00:09:29;101800.91;;;1.35;100.00
62849;BME280;48941;49.516;8.286;2024-01-30T00:11:57;101799.19;;;1.34;100.00
62849;BME280;48941;49.516;8.286;2024-01-30T00:14:25;101800.94;;;1.33;100.00
62849;BME280;48941;49.516;8.286;2024-01-30T00:16:53;101794.84;;;1.31;100.00
62849;BME280;48941;49.516;8.286;2024-01-30T00:26:18;101800.25;;;1.24;100.00
62849;BME280;48941;49.516;8.286;2024-01-30T00:28:45;101797.63;;;1.24;100.00
62849;BME280;48941;49.516;8.286;2024-01-30T00:31:13;101795.88;;;1.24;100.00
62849;BME280;48941;49.516;8.286;2024-01-30T00:33:41;101803.69;;;1.26;100.00
62849;BME280;48941;49.516;8.286;2024-01-30T00:36:09;101803.75;;;1.24;100.00
62849;BME280;48941;49.516;8.286;2024-01-30T00:38:37;101801.13;;;1.24;100.00
62849;BME280;48941;49.516;8.286;2024-01-30T00:41:05;101808.22;;;1.19;100.00
62849;BME280;48941;49.516;8.286;2024-01-30T00:43:34;101807.50;;;1.11;100.00
62849;BME280;48941;49.516;8.286;2024-01-30T00:46:02;101811.06;;;1.07;100.00
62849;BME280;48941;49.516;8.286;2024-01-30T00:48:29;101806.78;;;1.01;100.00
62849;BME280;48941;49.516;8.286;2024-01-30T00:50:57;101812.94;;;1.00;100.00
62849;BME280;48941;49.516;8.286;2024-01-30T00:53:26;101815.59;;;0.97;100.00
62849;BME280;48941;49.516;8.286;2024-01-30T00:55:54;101805.19;;;0.94;100.00
62849;BME280;48941;49.516;8.286;2024-01-30T00:58:21;101812.97;;;0.97;100.00
62849;BME280;48941;49.516;8.286;2024-01-30T01:00:50;101811.25;;;0.96;100.00
62849;BME280;48941;49.516;8.286;2024-01-30T01:03:18;101805.19;;;0.94;100.00
62849;BME280;48941;49.516;8.286;2024-01-30T01:05:46;101810.38;;;0.95;100.00
62849;BME280;48941;49.516;8.286;2024-01-30T01:08:14;101806.06;;;0.91;100.00
62849;BME280;48941;49.516;8.286;2024-01-30T01:10:41;101807.84;;;0.89;100.00
62849;BME280;48941;49.516;8.286;2024-01-30T01:13:09;101810.47;;;0.89;100.00
62849;BME280;48941;49.516;8.286;2024-01-30T01:15:37;101806.16;;;0.87;100.00
62849;BME280;48941;49.516;8.286;2024-01-30T01:18:06;101799.16;;;0.87;100.00
62849;BME280;48941;49.516;8.286;2024-01-30T01:20:34;101801.69;;;0.92;100.00
62849;BME280;48941;49.516;8.286;2024-01-30T01:23:02;101795.56;;;0.91;100.00
62849;BME280;48941;49.516;8.286;2024-01-30T01:25:30;101796.41;;;0.95;100.00
62849;BME280;48941;49.516;8.286;2024-01-30T01:27:57;101797.38;;;0.89;100.00
62849;BME280;48941;49.516;8.286;2024-01-30T01:30:27;101799.03;;;0.93;100.00
62849;BME280;48941;49.516;8.286;2024-01-30T01:32:55;101794.63;;;0.95;100.00
62849;BME280;48941;49.516;8.286;2024-01-30T01:35:28;101804.25;;;0.96;100.00
62849;BME280;48941;49.516;8.286;2024-01-30T01:37:55;101805.19;;;0.94;100.00
62849;BME280;48941;49.516;8.286;2024-01-30T01:40:25;101801.78;;;0.87;100.00
62849;BME280;48941;49.516;8.286;2024-01-30T01:42:55;101800.09;;;0.83;100.00
62849;BME280;48941;49.516;8.286;2024-01-30T01:45:23;101794.91;;;0.80;100.00
62849;BME280;48941;49.516;8.286;2024-01-30T01:47:54;101800.13;;;0.82;100.00
62849;BME280;48941;49.516;8.286;2024-01-30T01:50:22;101801.06;;;0.77;100.00
62849;BME280;48941;49.516;8.286;2024-01-30T01:52:52;101800.13;;;0.82;100.00
62849;BME280;48941;49.516;8.286;2024-01-30T01:55:22;101796.72;;;0.76;100.00
62849;BME280;48941;49.516;8.286;2024-01-30T01:57:52;101794.97;;;0.75;100.00
62849;BME280;48941;49.516;8.286;2024-01-30T02:00:20;101799.38;;;0.75;100.00
62849;BME280;48941;49.516;8.286;2024-01-30T02:02:49;101794.13;;;0.75;100.00
62849;BME280;48941;49.516;8.286;2024-01-30T02:05:18;101794.94;;;0.78;100.00
62849;BME280;48941;49.516;8.286;2024-01-30T02:07:46;101791.50;;;0.73;100.00
62849;BME280;48941;49.516;8.286;2024-01-30T02:10:15;101789.75;;;0.74;100.00
62849;BME280;48941;49.516;8.286;2024-01-30T02:12:43;101798.50;;;0.74;100.00
62849;BME280;48941;49.516;8.286;2024-01-30T02:15:13;101795.06;;;0.71;100.00
62849;BME280;48941;49.516;8.286;2024-01-30T02:17:41;101799.44;;;0.70;100.00
62849;BME280;48941;49.516;8.286;2024-01-30T02:20:10;101796.84;;;0.69;100.00
62849;BME280;48941;49.516;8.286;2024-01-30T02:22:43;101802.19;;;0.64;100.00
62849;BME280;48941;49.516;8.286;2024-01-30T02:25:10;101792.56;;;0.63;100.00
62849;BME280;48941;49.516;8.286;2024-01-30T02:27:38;101789.94;;;0.63;100.00
62849;BME280;48941;49.516;8.286;2024-01-30T02:30:07;101795.28;;;0.58;100.00
62849;BME280;48941;49.516;8.286;2024-01-30T02:32:34;101797.94;;;0.54;100.00
62849;BME280;48941;49.516;8.286;2024-01-30T02:35:03;101787.34;;;0.62;100.00
62849;BME280;48941;49.516;8.286;2024-01-30T02:37:30;101795.25;;;0.60;100.00
62849;BME280;48941;49.516;8.286;2024-01-30T02:39:59;101795.22;;;0.62;100.00
62849;BME280;48941;49.516;8.286;2024-01-30T02:42:27;101793.53;;;0.56;100.00
62849;BME280;48941;49.516;8.286;2024-01-30T02:44:55;101793.47;;;0.62;100.00
62849;BME280;48941;49.516;8.286;2024-01-30T02:47:23;101794.34;;;0.63;100.00
62849;BME280;48941;49.516;8.286;2024-01-30T02:49:50;101793.41;;;0.64;100.00
62849;BME280;48941;49.516;8.286;2024-01-30T02:52:22;101794.25;;;0.66;100.00
62849;BME280;48941;49.516;8.286;2024-01-30T02:54:50;101797.69;;;0.71;100.00
62849;BME280;48941;49.516;8.286;2024-01-30T02:57:19;101795.91;;;0.71;100.00
62849;BME280;48941;49.516;8.286;2024-01-30T02:59:46;101793.25;;;0.76;100.00
62849;BME280;48941;49.516;8.286;2024-01-30T03:02:14;101797.50;;;0.82;100.00
62849;BME280;48941;49.516;8.286;2024-01-30T03:04:42;101792.31;;;0.78;100.00
62849;BME280;48941;49.516;8.286;2024-01-30T03:07:09;101788.91;;;0.73;100.00
62849;BME280;48941;49.516;8.286;2024-01-30T03:09:38;101793.38;;;0.68;100.00
62849;BME280;48941;49.516;8.286;2024-01-30T03:12:06;101791.50;;;0.73;100.00
62849;BME280;48941;49.516;8.286;2024-01-30T03:14:38;101785.50;;;0.68;100.00
62849;BME280;48941;49.516;8.286;2024-01-30T03:17:05;101791.78;;;0.58;100.00
62849;BME280;48941;49.516;8.286;2024-01-30T03:19:33;101790.91;;;0.56;100.00
62849;BME280;48941;49.516;8.286;2024-01-30T03:22:01;101790.16;;;0.51;100.00
62849;BME280;48941;49.516;8.286;2024-01-30T03:24:29;101788.50;;;0.44;100.00
62849;BME280;48941;49.516;8.286;2024-01-30T03:26:57;101785.03;;;0.42;100.00
62849;BME280;48941;49.516;8.286;2024-01-30T03:29:24;101792.94;;;0.40;100.00
62849;BME280;48941;49.516;8.286;2024-01-30T03:31:53;101787.75;;;0.35;100.00
62849;BME280;48941;49.516;8.286;2024-01-30T03:34:21;101795.69;;;0.32;100.00
62849;BME280;48941;49.516;8.286;2024-01-30T03:36:49;101791.31;;;0.33;100.00
62849;BME280;48941;49.516;8.286;2024-01-30T03:39:17;101792.22;;;0.30;100.00
62849;BME280;48941;49.516;8.286;2024-01-30T03:41:45;101784.28;;;0.33;100.00
62849;BME280;48941;49.516;8.286;2024-01-30T03:44:12;101793.16;;;0.26;100.00
62849;BME280;48941;49.516;8.286;2024-01-30T03:46:40;101798.41;;;0.25;100.00
62849;BME280;48941;49.516;8.286;2024-01-30T03:49:09;101788.84;;;0.22;100.00
62849;BME280;48941;49.516;8.286;2024-01-30T03:51:37;101787.94;;;0.25;100.00
62849;BME280;48941;49.516;8.286;2024-01-30T03:54:05;101794.03;;;0.24;100.00
62849;BME280;48941;49.516;8.286;2024-01-30T03:56:33;101785.31;;;0.23;100.00
62849;BME280;48941;49.516;8.286;2024-01-30T03:59:01;101791.38;;;0.28;100.00
62849;BME280;48941;49.516;8.286;2024-01-30T04:01:29;101792.25;;;0.29;100.00
62849;BME280;48941;49.516;8.286;2024-01-30T04:03:57;101779.13;;;0.29;100.00
62849;BME280;48941;49.516;8.286;2024-01-30T04:06:26;101784.38;;;0.29;100.00
62849;BME280;48941;49.516;8.286;2024-01-30T04:08:54;101794.78;;;0.33;100.00
62849;BME280;48941;49.516;8.286;2024-01-30T04:11:22;101790.44;;;0.32;100.00
62849;BME280;48941;49.516;8.286;2024-01-30T04:13:49;101796.47;;;0.36;100.00
62849;BME280;48941;49.516;8.286;2024-01-30T04:16:20;101792.13;;;0.36;100.00
62849;BME280;48941;49.516;8.286;2024-01-30T04:18:49;101786.03;;;0.34;100.00
62849;BME280;48941;49.516;8.286;2024-01-30T04:21:16;101790.50;;;0.28;100.00
62849;BME280;48941;49.516;8.286;2024-01-30T04:23:45;101793.09;;;0.31;100.00
62849;BME280;48941;49.516;8.286;2024-01-30T04:26:14;101786.91;;;0.33;100.00
62849;BME280;48941;49.516;8.286;2024-01-30T04:28:43;101785.31;;;0.26;100.00
62849;BME280;48941;49.516;8.286;2024-01-30T04:31:12;101790.50;;;0.28;100.00
62849;BME280;48941;49.516;8.286;2024-01-30T04:33:39;101786.97;;;0.30;100.00
62849;BME280;48941;49.516;8.286;2024-01-30T04:36:08;101785.31;;;0.25;100.00
62849;BME280;48941;49.516;8.286;2024-01-30T04:38:37;101784.47;;;0.24;100.00
62849;BME280;48941;49.516;8.286;2024-01-30T04:41:07;101787.94;;;0.23;100.00
62849;BME280;48941;49.516;8.286;2024-01-30T04:43:34;101788.84;;;0.22;100.00
62849;BME280;48941;49.516;8.286;2024-01-30T04:46:03;101788.81;;;0.24;100.00
62849;BME280;48941;49.516;8.286;2024-01-30T04:48:31;101798.41;;;0.25;100.00
62849;BME280;48941;49.516;8.286;2024-01-30T04:50:59;101788.78;;;0.25;100.00
62849;BME280;48941;49.516;8.286;2024-01-30T04:53:29;101793.19;;;0.25;100.00
62849;BME280;48941;49.516;8.286;2024-01-30T04:55:57;101794.94;;;0.23;100.00
62849;BME280;48941;49.516;8.286;2024-01-30T04:58:28;101795.00;;;0.18;100.00
62849;BME280;48941;49.516;8.286;2024-01-30T05:00:56;101795.88;;;0.18;100.00
62849;BME280;48941;49.516;8.286;2024-01-30T05:03:24;101792.47;;;0.13;100.00
62849;BME280;48941;49.516;8.286;2024-01-30T05:05:52;101787.31;;;0.07;100.00
62849;BME280;48941;49.516;8.286;2024-01-30T05:08:20;101794.34;;;0.04;100.00
62849;BME280;48941;49.516;8.286;2024-01-30T05:10:48;101795.19;;;0.06;100.00
62849;BME280;48941;49.516;8.286;2024-01-30T05:13:15;101796.16;;;-0.02;100.00
62849;BME280;48941;49.516;8.286;2024-01-30T05:15:45;101795.34;;;-0.05;100.00
62849;BME280;48941;49.516;8.286;2024-01-30T05:18:12;101805.81;;;-0.05;100.00
62849;BME280;48941;49.516;8.286;2024-01-30T05:20:40;101807.63;;;-0.10;100.00
62849;BME280;48941;49.516;8.286;2024-01-30T05:23:08;101806.75;;;-0.11;100.00
62849;BME280;48941;49.516;8.286;2024-01-30T05:25:37;101804.16;;;-0.11;100.00
62849;BME280;48941;49.516;8.286;2024-01-30T05:28:05;101803.22;;;-0.07;100.00
62849;BME280;48941;49.516;8.286;2024-01-30T05:30:33;101807.53;;;-0.04;100.00
62849;BME280;48941;49.516;8.286;2024-01-30T05:33:02;101804.91;;;-0.03;100.00
62849;BME280;48941;49.516;8.286;2024-01-30T05:35:30;101804.03;;;-0.03;100.00
62849;BME280;48941;49.516;8.286;2024-01-30T05:37:58;101808.44;;;-0.05;100.00
62849;BME280;48941;49.516;8.286;2024-01-30T05:40:26;101802.38;;;-0.10;100.00
62849;BME280;48941;49.516;8.286;2024-01-30T05:42:54;101812.84;;;-0.10;100.00
62849;BME280;48941;49.516;8.286;2024-01-30T05:45:22;101811.16;;;-0.13;100.00
62849;BME280;48941;49.516;8.286;2024-01-30T05:47:50;101814.69;;;-0.14;100.00
62849;BME280;48941;49.516;8.286;2024-01-30T05:50:19;101813.00;;;-0.19;100.00
62849;BME280;48941;49.516;8.286;2024-01-30T05:52:49;101815.63;;;-0.19;100.00
62849;BME280;48941;49.516;8.286;2024-01-30T05:55:17;101819.94;;;-0.17;100.00
62849;BME280;48941;49.516;8.286;2024-01-30T05:57:45;101812.16;;;-0.22;100.00
62849;BME280;48941;49.516;8.286;2024-01-30T06:00:14;101805.06;;;-0.15;100.00
62849;BME280;48941;49.516;8.286;2024-01-30T06:02:42;101808.44;;;-0.04;100.00
62849;BME280;48941;49.516;8.286;2024-01-30T06:05:10;101819.75;;;-0.03;100.00
62849;BME280;48941;49.516;8.286;2024-01-30T06:07:39;101817.13;;;-0.03;100.00
62849;BME280;48941;49.516;8.286;2024-01-30T06:10:08;101811.88;;;0.00;100.00
62849;BME280;48941;49.516;8.286;2024-01-30T06:12:36;101814.31;;;0.12;100.00
62849;BME280;48941;49.516;8.286;2024-01-30T06:15:05;101814.38;;;0.08;100.00
62849;BME280;48941;49.516;8.286;2024-01-30T06:17:33;101802.09;;;0.11;100.00
62849;BME280;48941;49.516;8.286;2024-01-30T06:20:00;101806.47;;;0.12;100.00
62849;BME280;48941;49.516;8.286;2024-01-30T06:22:28;101805.63;;;0.10;100.00
62849;BME280;48941;49.516;8.286;2024-01-30T06:24:58;101810.88;;;0.09;100.00
62849;BME280;48941;49.516;8.286;2024-01-30T06:27:26;101811.69;;;0.12;100.00
62849;BME280;48941;49.516;8.286;2024-01-30T06:29:53;101809.88;;;0.16;100.00
62849;BME280;48941;49.516;8.286;2024-01-30T06:32:21;101802.06;;;0.13;100.00
62849;BME280;48941;49.516;8.286;2024-01-30T06:34:49;101806.47;;;0.11;100.00
62849;BME280;48941;49.516;8.286;2024-01-30T06:37:17;101804.78;;;0.08;100.00
62849;BME280;48941;49.516;8.286;2024-01-30T06:39:44;101806.56;;;0.06;100.00
62849;BME280;48941;49.516;8.286;2024-01-30T06:42:13;101812.66;;;0.05;100.00
62849;BME280;48941;49.516;8.286;2024-01-30T06:44:41;101816.13;;;0.07;100.00
62849;BME280;48941;49.516;8.286;2024-01-30T06:47:09;101813.56;;;0.04;100.00
62849;BME280;48941;49.516;8.286;2024-01-30T06:49:36;101811.00;;;-0.02;100.00
62849;BME280;48941;49.516;8.286;2024-01-30T06:52:06;101809.38;;;-0.09;100.00
62849;BME280;48941;49.516;8.286;2024-01-30T06:54:33;101816.38;;;-0.11;100.00
62849;BME280;48941;49.516;8.286;2024-01-30T06:57:01;101820.78;;;-0.13;100.00
62849;BME280;48941;49.516;8.286;2024-01-30T06:59:31;101814.72;;;-0.18;100.00
62849;BME280;48941;49.516;8.286;2024-01-30T07:01:59;101811.25;;;-0.21;100.00
62849;BME280;48941;49.516;8.286;2024-01-30T07:04:27;101812.09;;;-0.17;100.00
62849;BME280;48941;49.516;8.286;2024-01-30T07:06:55;101811.16;;;-0.14;100.00
62849;BME280;48941;49.516;8.286;2024-01-30T07:09:22;101811.22;;;-0.16;100.00
62849;BME280;48941;49.516;8.286;2024-01-30T07:11:49;101812.91;;;-0.13;100.00
62849;BME280;48941;49.516;8.286;2024-01-30T07:14:17;101817.28;;;-0.14;100.00
62849;BME280;48941;49.516;8.286;2024-01-30T07:16:46;101822.53;;;-0.15;100.00
62849;BME280;48941;49.516;8.286;2024-01-30T07:19:14;101823.41;;;-0.16;100.00
62849;BME280;48941;49.516;8.286;2024-01-30T07:21:42;101827.78;;;-0.14;100.00
62849;BME280;48941;49.516;8.286;2024-01-30T07:24:10;101821.66;;;-0.14;100.00
62849;BME280;48941;49.516;8.286;2024-01-30T07:26:38;101827.81;;;-0.18;100.00
62849;BME280;48941;49.516;8.286;2024-01-30T07:29:05;101824.34;;;-0.21;100.00
62849;BME280;48941;49.516;8.286;2024-01-30T07:31:34;101831.31;;;-0.19;100.00
62849;BME280;48941;49.516;8.286;2024-01-30T07:34:03;101838.28;;;-0.20;100.00
62849;BME280;48941;49.516;8.286;2024-01-30T07:36:31;101830.44;;;-0.18;100.00
62849;BME280;48941;49.516;8.286;2024-01-30T07:38:59;101836.50;;;-0.13;100.00
62849;BME280;48941;49.516;8.286;2024-01-30T07:41:27;101832.84;;;-0.03;100.00
62849;BME280;48941;49.516;8.286;2024-01-30T07:43:55;101832.78;;;0.02;100.00
62849;BME280;48941;49.516;8.286;2024-01-30T07:46:23;101830.94;;;0.10;100.00
62849;BME280;48941;49.516;8.286;2024-01-30T07:48:51;101830.81;;;0.17;100.00
62849;BME280;48941;49.516;8.286;2024-01-30T07:51:22;101836.81;;;0.27;100.00
62849;BME280;48941;49.516;8.286;2024-01-30T07:53:50;101843.66;;;0.37;100.00
62849;BME280;48941;49.516;8.286;2024-01-30T07:56:17;101841.84;;;0.43;100.00
62849;BME280;48941;49.516;8.286;2024-01-30T07:58:45;101842.50;;;0.55;100.00
62849;BME280;48941;49.516;8.286;2024-01-30T08:01:14;101850.31;;;0.60;100.00
62849;BME280;48941;49.516;8.286;2024-01-30T08:03:42;101849.22;;;0.73;100.00
62849;BME280;48941;49.516;8.286;2024-01-30T08:06:10;101850.75;;;0.87;100.00
62849;BME280;48941;49.516;8.286;2024-01-30T08:08:39;101857.53;;;1.00;100.00
62849;BME280;48941;49.516;8.286;2024-01-30T08:11:07;101858.19;;;1.13;100.00
62849;BME280;48941;49.516;8.286;2024-01-30T08:13:35;101856.28;;;1.23;100.00
62849;BME280;48941;49.516;8.286;2024-01-30T08:16:04;101863.09;;;1.33;100.00
62849;BME280;48941;49.516;8.286;2024-01-30T08:18:32;101861.13;;;1.44;100.00
62849;BME280;48941;49.516;8.286;2024-01-30T08:21:00;101857.47;;;1.51;100.00
62849;BME280;48941;49.516;8.286;2024-01-30T08:23:27;101861.72;;;1.60;100.00
62849;BME280;48941;49.516;8.286;2024-01-30T08:25:56;101862.34;;;1.71;100.00
62849;BME280;48941;49.516;8.286;2024-01-30T08:28:25;101864.84;;;1.77;100.00
62849;BME280;48941;49.516;8.286;2024-01-30T08:30:53;101864.78;;;1.82;100.00
62849;BME280;48941;49.516;8.286;2024-01-30T08:33:20;101865.47;;;1.92;100.00
62849;BME280;48941;49.516;8.286;2024-01-30T08:35:49;101857.44;;;1.98;100.00
62849;BME280;48941;49.516;8.286;2024-01-30T08:38:16;101859.84;;;2.07;100.00
62849;BME280;48941;49.516;8.286;2024-01-30T08:40:44;101857.91;;;2.17;100.00
62849;BME280;48941;49.516;8.286;2024-01-30T08:43:13;101856.06;;;2.21;100.00
62849;BME280;48941;49.516;8.286;2024-01-30T08:45:42;101857.75;;;2.25;100.00
62849;BME280;48941;49.516;8.286;2024-01-30T08:48:10;101863.63;;;2.36;100.00
62849;BME280;48941;49.516;8.286;2024-01-30T08:50:37;101868.69;;;2.44;100.00
62849;BME280;48941;49.516;8.286;2024-01-30T08:53:05;101859.81;;;2.49;100.00
62849;BME280;48941;49.516;8.286;2024-01-30T08:55:33;101860.50;;;2.57;100.00
62849;BME280;48941;49.516;8.286;2024-01-30T08:58:01;101862.25;;;2.58;100.00
62849;BME280;48941;49.516;8.286;2024-01-30T09:00:32;101857.81;;;2.61;100.00
62849;BME280;48941;49.516;8.286;2024-01-30T09:03:00;101858.63;;;2.63;100.00
62849;BME280;48941;49.516;8.286;2024-01-30T09:05:28;101871.66;;;2.67;100.00
62849;BME280;48941;49.516;8.286;2024-01-30T09:07:56;101859.34;;;2.69;100.00
62849;BME280;48941;49.516;8.286;2024-01-30T09:10:23;101858.34;;;2.75;100.00
62849;BME280;48941;49.516;8.286;2024-01-30T09:12:51;101859.09;;;2.80;100.00
62849;BME280;48941;49.516;8.286;2024-01-30T09:15:19;101864.09;;;2.91;100.00
62849;BME280;48941;49.516;8.286;2024-01-30T09:17:51;101866.50;;;3.00;100.00
62849;BME280;48941;49.516;8.286;2024-01-30T09:20:19;101865.50;;;3.06;100.00
62849;BME280;48941;49.516;8.286;2024-01-30T09:22:48;101863.72;;;3.06;100.00
62849;BME280;48941;49.516;8.286;2024-01-30T09:25:16;101858.34;;;3.09;100.00
62849;BME280;48941;49.516;8.286;2024-01-30T09:27:45;101859.94;;;3.16;100.00
62849;BME280;48941;49.516;8.286;2024-01-30T09:30:13;101865.00;;;3.24;100.00
62849;BME280;48941;49.516;8.286;2024-01-30T09:32:42;101871.00;;;3.29;100.00
62849;BME280;48941;49.516;8.286;2024-01-30T09:35:12;101862.91;;;3.37;100.00
62849;BME280;48941;49.516;8.286;2024-01-30T09:37:40;101871.47;;;3.45;100.00
62849;BME280;48941;49.516;8.286;2024-01-30T09:40:08;101866.78;;;3.56;100.00
62849;BME280;48941;49.516;8.286;2024-01-30T09:42:36;101866.28;;;3.73;100.00
62849;BME280;48941;49.516;8.286;2024-01-30T09:45:05;101858.81;;;3.89;100.00
62849;BME280;48941;49.516;8.286;2024-01-30T09:47:39;101867.16;;;4.05;100.00
62849;BME280;48941;49.516;8.286;2024-01-30T09:50:09;101861.44;;;4.21;100.00
62849;BME280;48941;49.516;8.286;2024-01-30T09:52:38;101862.84;;;4.32;100.00
62849;BME280;48941;49.516;8.286;2024-01-30T09:55:08;101867.88;;;4.40;100.00
62849;BME280;48941;49.516;8.286;2024-01-30T09:57:36;101867.75;;;4.43;100.00
62849;BME280;48941;49.516;8.286;2024-01-30T10:00:05;101875.56;;;4.48;100.00
62849;BME280;48941;49.516;8.286;2024-01-30T10:02:35;101872.72;;;4.54;100.00
62849;BME280;48941;49.516;8.286;2024-01-30T10:05:04;101876.97;;;4.59;100.00
62849;BME280;48941;49.516;8.286;2024-01-30T10:07:32;101875.94;;;4.64;100.00
62849;BME280;48941;49.516;8.286;2024-01-30T10:10:02;101879.19;;;4.72;100.00
62849;BME280;48941;49.516;8.286;2024-01-30T10:12:30;101876.44;;;4.75;100.00
62849;BME280;48941;49.516;8.286;2024-01-30T10:14:57;101865.06;;;4.73;100.00
62849;BME280;48941;49.516;8.286;2024-01-30T10:17:25;101861.41;;;4.77;100.00
62849;BME280;48941;49.516;8.286;2024-01-30T10:19:59;101864.94;;;4.77;100.00
62849;BME280;48941;49.516;8.286;2024-01-30T10:22:30;101861.13;;;4.86;100.00
62849;BME280;48941;49.516;8.286;2024-01-30T10:24:58;101864.28;;;4.97;100.00
62849;BME280;48941;49.516;8.286;2024-01-30T10:27:33;101881.56;;;5.08;100.00
62849;BME280;48941;49.516;8.286;2024-01-30T10:30:01;101868.69;;;5.24;100.00
62849;BME280;48941;49.516;8.286;2024-01-30T10:32:30;101873.59;;;5.34;100.00
62849;BME280;48941;49.516;8.286;2024-01-30T10:34:58;101860.97;;;5.43;100.00
62849;BME280;48941;49.516;8.286;2024-01-30T10:37:28;101861.50;;;5.52;100.00
62849;BME280;48941;49.516;8.286;2024-01-30T10:40:02;101860.97;;;5.68;100.00
62849;BME280;48941;49.516;8.286;2024-01-30T10:42:33;101859.94;;;5.72;100.00
62849;BME280;48941;49.516;8.286;2024-01-30T10:45:06;101850.81;;;5.81;100.00
62849;BME280;48941;49.516;8.286;2024-01-30T10:47:36;101857.66;;;5.86;100.00
62849;BME280;48941;49.516;8.286;2024-01-30T10:50:05;101860.91;;;5.93;100.00
62849;BME280;48941;49.516;8.286;2024-01-30T10:52:34;101851.13;;;5.96;100.00
62849;BME280;48941;49.516;8.286;2024-01-30T10:55:04;101850.88;;;6.03;100.00
62849;BME280;48941;49.516;8.286;2024-01-30T10:57:35;101861.13;;;6.12;100.00
62849;BME280;48941;49.516;8.286;2024-01-30T11:00:05;101867.22;;;6.14;100.00
62849;BME280;48941;49.516;8.286;2024-01-30T11:02:38;101860.84;;;6.20;100.00
62849;BME280;48941;49.516;8.286;2024-01-30T11:05:08;101855.97;;;6.31;100.00
62849;BME280;48941;49.516;8.286;2024-01-30T11:07:38;101855.69;;;6.38;100.00
62849;BME280;48941;49.516;8.286;2024-01-30T11:10:07;101857.97;;;6.48;100.00
62849;BME280;48941;49.516;8.286;2024-01-30T11:12:40;101860.34;;;6.55;100.00
62849;BME280;48941;49.516;8.286;2024-01-30T11:15:12;101857.28;;;6.65;100.00
62849;BME280;48941;49.516;8.286;2024-01-30T11:17:42;101857.72;;;6.76;100.00
62849;BME280;48941;49.516;8.286;2024-01-30T11:20:11;101845.19;;;6.81;100.00
62849;BME280;48941;49.516;8.286;2024-01-30T11:22:42;101854.19;;;6.77;100.00
62849;BME280;48941;49.516;8.286;2024-01-30T11:25:12;101857.72;;;6.76;100.00
62849;BME280;48941;49.516;8.286;2024-01-30T11:27:42;101847.88;;;6.80;100.00
62849;BME280;48941;49.516;8.286;2024-01-30T11:30:20;101845.97;;;6.83;100.00
62849;BME280;48941;49.516;8.286;2024-01-30T11:32:58;101844.19;;;6.84;100.00
62849;BME280;48941;49.516;8.286;2024-01-30T11:35:29;101821.94;;;6.88;100.00
62849;BME280;48941;49.516;8.286;2024-01-30T11:37:58;101814.84;;;6.88;100.00
62849;BME280;48941;49.516;8.286;2024-01-30T11:40:27;101814.06;;;6.86;100.00
62849;BME280;48941;49.516;8.286;2024-01-30T11:42:58;101813.06;;;6.89;100.00
62849;BME280;48941;49.516;8.286;2024-01-30T11:45:27;101814.00;;;6.88;100.00
62849;BME280;48941;49.516;8.286;2024-01-30T11:47:55;101813.00;;;6.90;100.00
62849;BME280;48941;49.516;8.286;2024-01-30T11:50:24;101808.44;;;6.94;100.00
62849;BME280;48941;49.516;8.286;2024-01-30T11:52:53;101799.50;;;6.96;100.00
62849;BME280;48941;49.516;8.286;2024-01-30T11:55:22;101799.31;;;7.01;100.00
62849;BME280;48941;49.516;8.286;2024-01-30T11:57:50;101794.59;;;7.08;100.00
62849;BME280;48941;49.516;8.286;2024-01-30T12:00:19;101789.03;;;7.14;100.00
62849;BME280;48941;49.516;8.286;2024-01-30T12:02:49;101797.66;;;7.19;100.00
62849;BME280;48941;49.516;8.286;2024-01-30T12:05:19;101792.00;;;7.27;100.00
62849;BME280;48941;49.516;8.286;2024-01-30T12:07:47;101788.38;;;7.29;100.00
62849;BME280;48941;49.516;8.286;2024-01-30T12:10:22;101783.88;;;7.31;100.00
62849;BME280;48941;49.516;8.286;2024-01-30T12:12:53;101787.16;;;7.36;100.00
62849;BME280;48941;49.516;8.286;2024-01-30T12:15:23;101786.88;;;7.43;100.00
62849;BME280;48941;49.516;8.286;2024-01-30T12:17:51;101791.22;;;7.45;100.00
62849;BME280;48941;49.516;8.286;2024-01-30T12:20:19;101798.09;;;7.49;100.00
62849;BME280;48941;49.516;8.286;2024-01-30T12:22:49;101794.31;;;7.55;100.00
62849;BME280;48941;49.516;8.286;2024-01-30T12:25:20;101802.03;;;7.60;100.00
62849;BME280;48941;49.516;8.286;2024-01-30T12:27:50;101795.72;;;7.62;100.00
62849;BME280;48941;49.516;8.286;2024-01-30T12:30:19;101791.88;;;7.69;100.00
62849;BME280;48941;49.516;8.286;2024-01-30T12:32:50;101776.47;;;7.77;100.00
62849;BME280;48941;49.516;8.286;2024-01-30T12:35:19;101784.09;;;7.85;100.00
62849;BME280;48941;49.516;8.286;2024-01-30T12:37:49;101782.16;;;7.89;100.00
62849;BME280;48941;49.516;8.286;2024-01-30T12:40:17;101775.59;;;7.96;100.00
62849;BME280;48941;49.516;8.286;2024-01-30T12:42:46;101783.22;;;8.04;100.00
62849;BME280;48941;49.516;8.286;2024-01-30T12:45:17;101784.66;;;8.11;100.00
62849;BME280;48941;49.516;8.286;2024-01-30T12:47:47;101785.28;;;8.16;100.00
62849;BME280;48941;49.516;8.286;2024-01-30T12:50:16;101778.81;;;8.22;100.00
62849;BME280;48941;49.516;8.286;2024-01-30T12:52:45;101776.50;;;8.33;100.00
62849;BME280;48941;49.516;8.286;2024-01-30T12:55:15;101783.66;;;8.50;100.00
62849;BME280;48941;49.516;8.286;2024-01-30T12:57:44;101791.66;;;8.67;100.00
62849;BME280;48941;49.516;8.286;2024-01-30T13:00:12;101791.91;;;8.80;100.00
62849;BME280;48941;49.516;8.286;2024-01-30T13:02:40;101778.69;;;8.96;100.00